createdAt,value
2022-09-26T00:01:45.592Z,3.00
2022-09-26T00:04:30.390Z,2.90
2022-09-26T00:07:02.113Z,3.90
2022-09-26T00:09:29.112Z,3.00
2022-09-26T00:11:58.409Z,3.47
2022-09-26T00:14:29.038Z,3.80
2022-09-26T00:16:58.233Z,3.37
2022-09-26T00:19:25.587Z,3.23
2022-09-26T00:21:52.669Z,3.60
2022-09-26T00:24:24.075Z,3.57
2022-09-26T00:26:53.048Z,3.30
2022-09-26T00:29:19.951Z,3.70
2022-09-26T00:31:48.939Z,2.90
2022-09-26T00:34:20.651Z,3.10
2022-09-26T00:36:47.706Z,2.80
2022-09-26T00:39:16.751Z,2.70
2022-09-26T00:41:47.304Z,3.30
2022-09-26T00:44:48.581Z,2.57
2022-09-26T00:47:59.468Z,3.00
2022-09-26T00:50:34.038Z,2.70
2022-09-26T00:53:09.398Z,2.43
2022-09-26T00:55:43.043Z,2.33
2022-09-26T00:58:28.218Z,2.57
2022-09-26T01:00:59.023Z,2.97
2022-09-26T01:03:27.944Z,2.37
2022-09-26T01:05:55.375Z,2.80
2022-09-26T01:08:36.824Z,2.30
2022-09-26T01:11:04.655Z,3.53
2022-09-26T01:13:34.571Z,3.30
2022-09-26T01:16:02.127Z,2.70
2022-09-26T01:18:29.691Z,3.37
2022-09-26T01:21:33.587Z,2.73
2022-09-26T01:24:23.743Z,3.93
2022-09-26T01:26:59.412Z,2.73
2022-09-26T01:30:08.387Z,2.93
2022-09-26T01:32:57.285Z,2.93
2022-09-26T01:35:37.059Z,3.03
2022-09-26T01:38:20.213Z,3.33
2022-09-26T01:41:22.151Z,2.93
2022-09-26T01:44:17.677Z,3.30
2022-09-26T01:47:15.490Z,3.40
2022-09-26T01:50:18.711Z,3.30
2022-09-26T01:53:12.227Z,3.13
2022-09-26T01:55:46.230Z,3.30
2022-09-26T01:58:27.624Z,3.13
2022-09-26T02:01:01.119Z,2.90
2022-09-26T02:03:34.824Z,4.10
2022-09-26T02:06:09.270Z,2.57
2022-09-26T02:08:44.491Z,3.70
2022-09-26T02:11:18.913Z,4.17
2022-09-26T02:14:34.878Z,3.23
2022-09-26T02:17:22.958Z,3.00
2022-09-26T02:19:56.666Z,2.90
2022-09-26T02:22:31.252Z,3.20
2022-09-26T02:24:58.634Z,3.30
2022-09-26T02:27:27.459Z,3.27
2022-09-26T02:29:54.831Z,2.87
2022-09-26T02:32:28.936Z,3.97
2022-09-26T02:34:56.673Z,3.80
2022-09-26T02:37:28.851Z,3.67
2022-09-26T02:39:56.734Z,2.93
2022-09-26T02:42:38.116Z,4.00
2022-09-26T02:45:30.255Z,3.70
2022-09-26T02:47:59.928Z,2.83
2022-09-26T02:50:47.112Z,3.23
2022-09-26T02:53:29.480Z,3.30
2022-09-26T02:56:24.070Z,3.90
2022-09-26T02:59:25.620Z,3.30
2022-09-26T03:02:06.274Z,3.37
2022-09-26T03:05:04.225Z,3.50
2022-09-26T03:07:37.645Z,3.50
2022-09-26T03:10:10.856Z,3.57
2022-09-26T03:12:39.498Z,3.40
2022-09-26T03:15:08.142Z,3.40
2022-09-26T03:17:43.086Z,3.30
2022-09-26T03:20:24.844Z,3.10
2022-09-26T03:22:52.481Z,4.00
2022-09-26T03:25:24.017Z,3.43
2022-09-26T03:27:53.625Z,3.50
2022-09-26T03:30:23.069Z,3.10
2022-09-26T03:32:52.082Z,3.53
2022-09-26T03:35:19.241Z,3.23
2022-09-26T03:37:46.436Z,3.57
2022-09-26T03:40:14.301Z,3.93
2022-09-26T03:42:43.944Z,3.70
2022-09-26T03:45:14.161Z,3.30
2022-09-26T03:47:43.581Z,3.57
2022-09-26T03:50:15.151Z,3.47
2022-09-26T03:52:42.073Z,3.20
2022-09-26T03:55:11.983Z,2.97
2022-09-26T03:57:38.845Z,3.07
2022-09-26T04:00:08.292Z,3.87
2022-09-26T04:02:35.338Z,3.90
2022-09-26T04:05:04.475Z,3.73
2022-09-26T04:07:31.397Z,3.30
2022-09-26T04:09:58.314Z,3.67
2022-09-26T04:12:25.773Z,3.40
2022-09-26T04:14:52.927Z,4.60
2022-09-26T04:17:20.461Z,4.17
2022-09-26T04:19:49.665Z,3.30
2022-09-26T04:22:19.768Z,3.90
2022-09-26T04:24:46.935Z,3.17
2022-09-26T04:27:15.894Z,3.43
2022-09-26T04:29:44.180Z,3.07
2022-09-26T04:32:12.566Z,3.80
2022-09-26T04:34:41.981Z,3.27
2022-09-26T04:37:13.364Z,3.07
2022-09-26T04:39:40.247Z,3.53
2022-09-26T04:42:09.373Z,3.50
2022-09-26T04:44:36.273Z,3.10
2022-09-26T04:47:03.134Z,3.70
2022-09-26T04:49:29.937Z,3.13
2022-09-26T04:51:56.754Z,3.50
2022-09-26T04:54:24.103Z,3.57
2022-09-26T04:56:53.500Z,4.10
2022-09-26T04:59:22.789Z,2.50
2022-09-26T05:01:49.646Z,2.80
2022-09-26T05:04:16.657Z,2.77
2022-09-26T05:06:43.525Z,4.00
2022-09-26T05:09:10.544Z,3.27
2022-09-26T05:11:41.993Z,3.40
2022-09-26T05:14:09.109Z,2.70
2022-09-26T05:16:37.112Z,3.93
2022-09-26T05:19:04.454Z,2.90
2022-09-26T05:21:32.787Z,3.03
2022-09-26T05:24:20.695Z,3.23
2022-09-26T05:26:55.257Z,3.00
2022-09-26T05:29:27.333Z,2.90
2022-09-26T05:31:56.756Z,3.40
2022-09-26T05:34:26.449Z,3.70
2022-09-26T05:36:59.329Z,3.10
2022-09-26T05:39:44.862Z,4.20
2022-09-26T05:42:11.768Z,2.97
2022-09-26T05:44:39.675Z,3.93
2022-09-26T05:47:09.866Z,4.30
2022-09-26T05:49:36.836Z,3.90
2022-09-26T05:52:04.064Z,3.70
2022-09-26T05:54:33.465Z,3.90
2022-09-26T05:57:00.869Z,3.70
2022-09-26T05:59:27.722Z,4.33
2022-09-26T06:01:55.767Z,4.87
2022-09-26T06:04:24.778Z,4.10
2022-09-26T06:06:54.332Z,4.07
2022-09-26T06:09:25.742Z,3.53
2022-09-26T06:11:52.560Z,3.80
2022-09-26T06:14:19.426Z,3.70
2022-09-26T06:16:48.706Z,3.90
2022-09-26T06:19:19.386Z,3.40
2022-09-26T06:21:51.017Z,3.87
2022-09-26T06:24:18.593Z,4.37
2022-09-26T06:26:48.439Z,4.00
2022-09-26T06:29:15.538Z,4.33
2022-09-26T06:31:43.251Z,3.53
2022-09-26T06:34:15.481Z,4.13
2022-09-26T06:36:42.589Z,3.70
2022-09-26T06:39:11.742Z,4.40
2022-09-26T06:41:38.803Z,3.90
2022-09-26T06:44:08.234Z,3.50
2022-09-26T06:46:35.326Z,4.10
2022-09-26T06:49:02.134Z,4.20
2022-09-26T06:51:30.521Z,4.90
2022-09-26T06:53:57.427Z,4.80
2022-09-26T06:56:24.346Z,4.20
2022-09-26T06:58:55.044Z,4.30
2022-09-26T07:01:22.084Z,5.03
2022-09-26T07:03:49.200Z,4.93
2022-09-26T07:06:17.155Z,5.10
2022-09-26T07:09:01.343Z,5.17
2022-09-26T07:11:42.130Z,5.00
2022-09-26T07:14:21.039Z,5.50
2022-09-26T07:16:52.069Z,5.47
2022-09-26T07:19:19.039Z,6.30
2022-09-26T07:21:49.976Z,5.87
2022-09-26T07:24:16.855Z,6.80
2022-09-26T07:26:46.543Z,6.47
2022-09-26T07:29:14.764Z,7.00
2022-09-26T07:31:41.928Z,7.50
2022-09-26T07:34:15.832Z,6.83
2022-09-26T07:36:47.487Z,6.60
2022-09-26T07:39:19.290Z,6.83
2022-09-26T07:41:46.740Z,6.07
2022-09-26T07:47:20.784Z,7.33
2022-09-26T07:50:08.513Z,6.77
2022-09-26T07:52:38.564Z,7.03
2022-09-26T07:55:06.905Z,7.37
2022-09-26T07:57:34.185Z,6.80
2022-09-26T08:00:05.109Z,7.07
2022-09-26T08:02:34.513Z,6.60
2022-09-26T08:05:05.698Z,6.93
2022-09-26T08:07:35.301Z,7.10
2022-09-26T08:10:04.170Z,6.50
2022-09-26T08:12:38.677Z,6.70
2022-09-26T08:15:08.900Z,6.20
2022-09-26T08:17:39.146Z,6.43
2022-09-26T08:20:06.796Z,6.13
2022-09-26T08:22:36.475Z,6.40
2022-09-26T08:25:06.728Z,7.40
2022-09-26T08:27:34.662Z,6.37
2022-09-26T08:30:04.633Z,6.07
2022-09-26T08:32:33.995Z,5.70
2022-09-26T08:35:02.935Z,6.80
2022-09-26T08:37:32.486Z,6.03
2022-09-26T08:40:00.920Z,5.20
2022-09-26T08:43:04.320Z,6.37
2022-09-26T08:46:04.833Z,6.40
2022-09-26T08:49:16.219Z,5.77
2022-09-26T08:51:51.586Z,6.47
2022-09-26T08:54:41.675Z,5.00
2022-09-26T08:57:36.261Z,6.13
2022-09-26T09:00:21.364Z,5.93
2022-09-26T09:03:16.183Z,5.67
2022-09-26T09:05:50.173Z,6.47
2022-09-26T09:08:23.278Z,6.50
2022-09-26T09:11:02.453Z,5.47
2022-09-26T09:14:10.914Z,5.20
2022-09-26T09:16:57.918Z,5.47
2022-09-26T09:19:50.741Z,4.70
2022-09-26T09:22:32.366Z,4.97
2022-09-26T09:25:05.859Z,5.60
2022-09-26T09:27:55.900Z,5.10
2022-09-26T09:30:57.509Z,4.37
2022-09-26T09:33:24.402Z,4.80
2022-09-26T09:36:14.056Z,4.10
2022-09-26T09:38:46.084Z,4.60
2022-09-26T09:41:21.375Z,4.67
2022-09-26T09:43:54.570Z,4.20
2022-09-26T09:46:29.729Z,4.03
2022-09-26T09:49:09.329Z,3.87
2022-09-26T09:52:07.490Z,3.83
2022-09-26T09:54:53.260Z,4.10
2022-09-26T09:57:36.639Z,3.60
2022-09-26T10:00:12.249Z,3.77
2022-09-26T10:03:11.418Z,4.47
2022-09-26T10:05:45.574Z,4.23
2022-09-26T10:08:19.349Z,3.90
2022-09-26T10:11:12.891Z,3.87
2022-09-26T10:13:42.961Z,3.20
2022-09-26T10:16:16.351Z,4.23
2022-09-26T10:19:10.611Z,5.93
2022-09-26T10:21:45.974Z,3.03
2022-09-26T10:24:34.219Z,3.30
2022-09-26T10:27:24.937Z,3.00
2022-09-26T10:30:02.249Z,4.10
2022-09-26T10:32:30.479Z,4.23
2022-09-26T10:35:20.492Z,3.57
2022-09-26T10:38:00.912Z,3.60
2022-09-26T10:40:46.187Z,3.30
2022-09-26T10:43:30.377Z,3.10
2022-09-26T10:46:15.532Z,2.87
2022-09-26T10:48:55.191Z,2.73
2022-09-26T10:51:45.566Z,3.17
2022-09-26T10:54:18.711Z,2.67
2022-09-26T10:56:54.195Z,3.30
2022-09-26T10:59:32.312Z,3.30
2022-09-26T11:02:03.802Z,2.40
2022-09-26T11:04:52.724Z,2.33
2022-09-26T11:07:34.008Z,3.13
2022-09-26T11:10:09.881Z,2.70
2022-09-26T11:12:39.652Z,2.30
2022-09-26T11:15:09.868Z,3.00
2022-09-26T11:17:45.394Z,3.27
2022-09-26T11:20:25.565Z,3.13
2022-09-26T11:23:20.133Z,3.00
2022-09-26T11:25:58.291Z,2.33
2022-09-26T11:28:38.506Z,2.63
2022-09-26T11:31:25.046Z,2.70
2022-09-26T11:37:08.759Z,2.77
2022-09-26T11:39:55.310Z,3.30
2022-09-26T11:43:06.542Z,2.90
2022-09-26T11:46:04.878Z,2.90
2022-09-26T11:49:15.361Z,2.50
2022-09-26T11:52:07.604Z,2.70
2022-09-26T11:55:15.154Z,3.00
2022-09-26T11:58:35.030Z,2.63
2022-09-26T12:01:21.104Z,3.50
2022-09-26T12:04:26.658Z,2.07
2022-09-26T12:07:07.376Z,2.10
2022-09-26T12:10:26.334Z,2.60
2022-09-26T12:13:18.121Z,3.07
2022-09-26T12:16:02.128Z,2.93
2022-09-26T12:18:53.559Z,2.57
2022-09-26T12:21:36.185Z,2.57
2022-09-26T12:24:36.768Z,2.33
2022-09-26T12:27:33.260Z,2.10
2022-09-26T12:30:14.689Z,2.53
2022-09-26T12:33:02.560Z,2.77
2022-09-26T12:35:56.674Z,2.20
2022-09-26T12:39:17.252Z,2.20
2022-09-26T12:42:00.332Z,2.60
2022-09-26T12:45:17.300Z,2.03
2022-09-26T12:48:02.253Z,2.30
2022-09-26T12:50:39.876Z,1.80
2022-09-26T12:53:22.042Z,2.23
2022-09-26T12:56:11.374Z,2.27
2022-09-26T12:59:16.107Z,2.33
2022-09-26T13:02:05.552Z,2.50
2022-09-26T13:04:57.594Z,2.10
2022-09-26T13:07:43.004Z,2.50
2022-09-26T13:10:25.196Z,1.87
2022-09-26T13:13:13.897Z,2.07
2022-09-26T13:16:00.387Z,2.67
2022-09-26T13:18:45.539Z,3.27
2022-09-26T13:21:37.596Z,3.00
2022-09-26T13:24:13.908Z,2.80
2022-09-26T13:26:54.159Z,2.80
2022-09-26T13:29:33.693Z,2.40
2022-09-26T13:32:25.752Z,2.83
2022-09-26T13:35:13.449Z,2.70
2022-09-26T13:38:25.345Z,2.20
2022-09-26T13:41:15.600Z,2.47
2022-09-26T13:43:57.394Z,2.60
2022-09-26T13:46:52.230Z,3.10
2022-09-26T13:49:42.829Z,2.80
2022-09-26T13:52:21.920Z,2.20
2022-09-26T13:55:15.051Z,2.30
2022-09-26T13:58:04.188Z,2.17
2022-09-26T14:00:31.610Z,2.40
2022-09-26T14:03:10.463Z,2.17
2022-09-26T14:05:46.588Z,1.90
2022-09-26T14:08:44.296Z,2.60
2022-09-26T14:11:27.834Z,2.80
2022-09-26T14:14:24.156Z,2.00
2022-09-26T14:17:04.837Z,2.20
2022-09-26T14:19:42.729Z,2.80
2022-09-26T14:22:19.168Z,2.57
2022-09-26T14:24:50.188Z,2.43
2022-09-26T14:27:39.521Z,2.50
2022-09-26T14:30:30.220Z,2.27
2022-09-26T14:33:06.492Z,2.23
2022-09-26T14:35:39.767Z,2.30
2022-09-26T14:38:19.793Z,2.50
2022-09-26T14:41:18.412Z,2.40
2022-09-26T14:43:49.887Z,2.37
2022-09-26T14:46:26.095Z,2.60
2022-09-26T14:49:01.770Z,2.87
2022-09-26T14:51:34.274Z,3.17
2022-09-26T14:54:05.649Z,2.90
2022-09-26T14:56:42.409Z,2.53
2022-09-26T14:59:26.783Z,3.00
2022-09-26T15:02:39.528Z,3.13
2022-09-26T15:05:22.691Z,3.43
2022-09-26T15:07:55.266Z,2.43
2022-09-26T15:10:42.720Z,2.73
2022-09-26T15:13:22.734Z,3.20
2022-09-26T15:16:42.702Z,2.67
2022-09-26T15:19:19.553Z,3.63
2022-09-26T15:21:58.429Z,3.47
2022-09-26T15:24:30.116Z,3.60
2022-09-26T15:27:03.707Z,3.20
2022-09-26T15:29:30.562Z,3.27
2022-09-26T15:31:57.655Z,2.90
2022-09-26T15:34:35.256Z,3.07
2022-09-26T15:37:19.628Z,3.10
2022-09-26T15:39:49.227Z,2.80
2022-09-26T15:42:41.190Z,3.67
2022-09-26T15:45:30.398Z,3.07
2022-09-26T15:48:26.331Z,3.10
2022-09-26T15:51:02.105Z,2.70
2022-09-26T15:53:46.570Z,2.83
2022-09-26T15:56:43.363Z,3.30
2022-09-26T15:59:25.643Z,3.40
2022-09-26T16:01:53.319Z,2.90
2022-09-26T16:04:33.527Z,2.90
2022-09-26T16:07:20.672Z,3.33
2022-09-26T16:09:51.408Z,3.10
2022-09-26T16:12:24.980Z,3.20
2022-09-26T16:15:06.014Z,3.10
2022-09-26T16:17:49.188Z,3.07
2022-09-26T16:20:19.008Z,3.73
2022-09-26T16:22:52.598Z,3.07
2022-09-26T16:25:22.920Z,3.00
2022-09-26T16:28:21.082Z,3.80
2022-09-26T16:30:59.981Z,2.77
2022-09-26T16:33:45.104Z,2.93
2022-09-26T16:36:31.554Z,2.87
2022-09-26T16:39:05.915Z,2.63
2022-09-26T16:42:00.482Z,2.90
2022-09-26T16:44:41.806Z,2.93
2022-09-26T16:47:43.842Z,2.77
2022-09-26T16:50:33.402Z,3.10
2022-09-26T16:53:03.087Z,2.70
2022-09-26T16:55:35.093Z,2.80
2022-09-26T16:58:05.172Z,2.50
2022-09-26T17:00:53.401Z,3.27
2022-09-26T17:03:27.700Z,3.20
2022-09-26T17:05:57.184Z,3.10
2022-09-26T17:08:28.185Z,2.80
2022-09-26T17:11:00.304Z,3.00
2022-09-26T17:13:33.072Z,2.80
2022-09-26T17:16:03.773Z,2.77
2022-09-26T17:18:34.443Z,3.17
2022-09-26T17:21:01.682Z,2.37
2022-09-26T17:23:42.041Z,2.90
2022-09-26T17:26:25.454Z,2.17
2022-09-26T17:28:58.255Z,2.80
2022-09-26T17:31:27.736Z,3.37
2022-09-26T17:33:57.394Z,2.80
2022-09-26T17:36:28.114Z,2.40
2022-09-26T17:38:57.711Z,2.23
2022-09-26T17:41:29.687Z,1.70
2022-09-26T17:44:01.062Z,2.60
2022-09-26T17:46:28.967Z,2.37
2022-09-26T17:48:59.355Z,2.50
2022-09-26T17:51:26.449Z,1.80
2022-09-26T17:53:57.497Z,2.30
2022-09-26T17:56:26.441Z,2.30
2022-09-26T17:58:54.226Z,2.40
2022-09-26T18:01:30.247Z,2.50
2022-09-26T18:04:03.899Z,2.37
2022-09-26T18:06:33.278Z,2.10
2022-09-26T18:09:07.740Z,2.50
2022-09-26T18:11:36.299Z,2.20
2022-09-26T18:14:06.953Z,2.53
2022-09-26T18:16:34.078Z,2.00
2022-09-26T18:19:06.860Z,2.50
2022-09-26T18:21:40.754Z,2.73
2022-09-26T18:24:20.190Z,2.70
2022-09-26T18:26:55.127Z,1.90
2022-09-26T18:29:39.144Z,1.97
2022-09-26T18:32:27.378Z,1.80
2022-09-26T18:34:59.672Z,1.90
2022-09-26T18:37:27.410Z,2.10
2022-09-26T18:40:03.808Z,2.17
2022-09-26T18:42:49.298Z,2.13
2022-09-26T18:45:40.410Z,2.33
2022-09-26T18:48:25.931Z,1.90
2022-09-26T18:51:02.737Z,2.70
2022-09-26T18:53:40.178Z,2.33
2022-09-26T18:56:31.618Z,2.00
2022-09-26T18:58:59.880Z,2.37
2022-09-26T19:01:38.326Z,2.17
2022-09-26T19:04:17.254Z,2.17
2022-09-26T19:06:49.714Z,1.93
2022-09-26T19:09:20.805Z,2.50
2022-09-26T19:11:47.753Z,3.07
2022-09-26T19:14:20.321Z,2.20
2022-09-26T19:16:51.858Z,2.27
2022-09-26T19:19:26.827Z,2.27
2022-09-26T19:22:08.235Z,2.10
2022-09-26T19:24:45.626Z,2.00
2022-09-26T19:27:21.598Z,2.20
2022-09-26T19:29:58.885Z,1.90
2022-09-26T19:32:45.065Z,2.50
2022-09-26T19:35:33.026Z,2.17
2022-09-26T19:38:05.844Z,2.13
2022-09-26T19:40:36.508Z,1.97
2022-09-26T19:43:05.795Z,2.30
2022-09-26T19:45:38.589Z,2.40
2022-09-26T19:48:06.834Z,2.10
2022-09-26T19:50:38.186Z,1.83
2022-09-26T19:53:19.186Z,2.27
2022-09-26T19:55:50.156Z,2.10
2022-09-26T19:58:26.311Z,2.80
2022-09-26T20:01:02.404Z,2.13
2022-09-26T20:03:39.908Z,2.20
2022-09-26T20:06:17.922Z,2.60
2022-09-26T20:08:45.029Z,2.17
2022-09-26T20:11:14.559Z,2.00
2022-09-26T20:14:00.496Z,2.20
2022-09-26T20:16:31.656Z,1.97
2022-09-26T20:18:58.858Z,2.80
2022-09-26T20:21:29.529Z,2.50
2022-09-26T20:24:00.314Z,2.37
2022-09-26T20:26:30.697Z,2.20
2022-09-26T20:29:00.245Z,2.20
2022-09-26T20:31:31.275Z,2.23
2022-09-26T20:34:05.926Z,2.13
2022-09-26T20:36:35.988Z,2.50
2022-09-26T20:39:07.407Z,1.77
2022-09-26T20:41:40.337Z,2.20
2022-09-26T20:44:17.922Z,3.10
2022-09-26T20:46:54.211Z,2.70
2022-09-26T20:49:28.683Z,2.03
2022-09-26T20:51:59.865Z,1.90
2022-09-26T20:54:36.838Z,2.03
2022-09-26T20:57:03.859Z,1.87
2022-09-26T20:59:35.128Z,3.10
2022-09-26T21:02:26.441Z,1.90
2022-09-26T21:04:53.937Z,2.17
2022-09-26T21:07:22.354Z,2.10
2022-09-26T21:09:53.738Z,2.40
2022-09-26T21:12:20.827Z,1.60
2022-09-26T21:14:47.830Z,2.13
2022-09-26T21:17:23.102Z,2.10
2022-09-26T21:19:51.459Z,1.70
2022-09-26T21:22:25.721Z,1.70
2022-09-26T21:24:55.479Z,1.83
2022-09-26T21:27:24.769Z,1.73
2022-09-26T21:30:01.670Z,2.27
2022-09-26T21:32:31.345Z,2.30
2022-09-26T21:35:04.011Z,2.30
2022-09-26T21:37:31.520Z,2.10
2022-09-26T21:40:01.015Z,2.17
2022-09-26T21:42:28.022Z,1.50
2022-09-26T21:45:03.006Z,1.97
2022-09-26T21:47:30.298Z,1.60
2022-09-26T21:49:57.961Z,1.80
2022-09-26T21:52:37.811Z,1.73
2022-09-26T21:55:06.405Z,1.63
2022-09-26T21:57:39.053Z,1.93
2022-09-26T22:00:10.084Z,2.00
2022-09-26T22:02:38.725Z,2.00
2022-09-26T22:05:06.486Z,2.10
2022-09-26T22:07:33.357Z,2.07
2022-09-26T22:10:00.376Z,2.07
2022-09-26T22:12:27.437Z,1.97
2022-09-26T22:14:54.504Z,1.80
2022-09-26T22:17:21.422Z,1.87
2022-09-26T22:19:48.509Z,2.00
2022-09-26T22:22:18.014Z,2.30
2022-09-26T22:24:45.300Z,2.03
2022-09-26T22:27:12.548Z,1.83
2022-09-26T22:29:41.571Z,2.33
2022-09-26T22:32:10.931Z,2.00
2022-09-26T22:34:37.857Z,1.80
2022-09-26T22:37:07.111Z,2.30
2022-09-26T22:39:36.181Z,2.13
2022-09-26T22:42:03.261Z,1.93
2022-09-26T22:44:31.145Z,1.97
2022-09-26T22:47:00.744Z,2.17
2022-09-26T22:49:30.794Z,1.90
2022-09-26T22:52:07.566Z,2.17
2022-09-26T22:54:34.647Z,2.37
2022-09-26T22:57:02.059Z,2.37
2022-09-26T22:59:29.010Z,1.93
2022-09-26T23:01:59.008Z,1.83
2022-09-26T23:04:45.883Z,2.33
2022-09-26T23:07:15.776Z,2.40
2022-09-26T23:09:45.791Z,2.33
2022-09-26T23:12:12.945Z,1.97
2022-09-26T23:14:40.332Z,2.30
2022-09-26T23:17:09.859Z,2.03
2022-09-26T23:19:40.140Z,2.20
2022-09-26T23:22:09.482Z,2.50
2022-09-26T23:24:36.603Z,2.50
2022-09-26T23:27:04.215Z,2.70
2022-09-26T23:29:31.329Z,2.00
2022-09-26T23:32:01.101Z,2.10
2022-09-26T23:34:28.316Z,2.20
2022-09-26T23:36:55.835Z,2.50
2022-09-26T23:39:25.575Z,2.60
2022-09-26T23:41:52.461Z,2.33
2022-09-26T23:44:20.038Z,2.40
2022-09-26T23:46:48.219Z,2.60
2022-09-26T23:49:15.328Z,2.20
2022-09-26T23:51:42.553Z,2.40
2022-09-26T23:54:09.616Z,2.43
2022-09-26T23:56:38.727Z,3.10
2022-09-26T23:59:05.823Z,2.40
